• Join FlightAware (Why Join?)
  • Login
  • US Flag 
01:20PM EDT


 

Airport Tracker/Info


-or-


 

Live Flight TrackerFlight Track Log ✈ N155MW ✈ 05-May-2013 ✈ KANB - KSVH

Flight Track Log - Related Links

Times and Time Zones

All times are in EDT time to prevent confusion due to time zone crossing. See the N155MW flight status page for this flight to view local times or setup timezone preferences in your user account.

Time Position Orientation Groundspeed Altitude Reporting Facility
EDT Latitude Longitude Course Direction KTS MPH feet Rate Location/Type
10:22PM 33.5250 -85.9325 61° Northeast 250 288 4,100  Level Atlanta Center
10:23PM 33.4633 -86.0108 227° Southwest 278 320 5,100 780 Climbing Atlanta Center
10:24PM 33.5000 -86.0717 306° West 264 304 5,900 1,140 Climbing Atlanta Center
10:24PM 33.5250 -86.0697 North 372 428 6,600 1,920 Climbing Atlanta Center
10:25PM 33.8630 -85.2759 60° Northeast  Level Estimated
10:25PM 33.5897 -86.0736 357° North 287 330 8,400  Level Atlanta Center
10:26PM 33.9085 -85.1785 61° Northeast  Level Estimated
10:26PM 33.6647 -86.0756 359° North 263 303 10,100  Level Atlanta Center
10:27PM 33.9540 -85.0810 61° Northeast  Level Estimated
10:27PM 33.7503 -86.0775 359° North 282 325 11,300  Level Atlanta Center
10:28PM 33.8378 -86.0794 359° North 299 344 13,300 1,860 Climbing Atlanta Center
10:29PM 33.9275 -86.0817 359° North 313 360 15,100 1,560 Climbing Atlanta Center
10:30PM 34.0158 -86.0486 17° North 318 366 16,500 1,380 Climbing Atlanta Center
10:31PM 34.0922 -85.9753 38° Northeast 318 366 17,900 1,440 Climbing Atlanta Center
10:32PM 34.1725 -85.8992 38° Northeast 343 395 19,400 1,500 Climbing Atlanta Center
10:33PM 34.2550 -85.8231 37° Northeast 357 411 20,900 1,320 Climbing Atlanta Center
10:34PM 34.3461 -85.7419 36° Northeast 367 422 22,100 1,020 Climbing Atlanta Center
10:35PM 34.4181 -85.6706 39° Northeast 367 422 23,000 420 Climbing Atlanta Center
10:36PM 34.5044 -85.5914 37° Northeast 373 429 23,000  Level Atlanta Center
10:37PM 34.5869 -85.5097 39° Northeast 373 429 23,000  Level Atlanta Center
10:38PM 34.6714 -85.4306 38° Northeast 373 429 23,000  Level Atlanta Center
10:39PM 34.7619 -85.3458 38° Northeast 388 447 23,000 60 Level Atlanta Center
10:40PM 34.8547 -85.2564 38° Northeast 409 471 23,200 600 Climbing Atlanta Center
10:41PM 34.9453 -85.1664 39° Northeast 415 478 24,200 900 Climbing Atlanta Center
10:42PM 35.0256 -85.0711 44° Northeast 410 472 25,000 360 Climbing Atlanta Center
10:43PM 35.1033 -84.9681 47° Northeast 399 459 25,000  Level Atlanta Center
10:44PM 35.1856 -84.8597 47° Northeast 414 476 25,000 420 Level Atlanta Center
10:45PM 35.2656 -84.7511 48° Northeast 421 484 25,900 900 Climbing Atlanta Center
10:46PM 35.3475 -84.6447 47° Northeast 421 484 26,800 540 Climbing Atlanta Center
10:47PM 35.4294 -84.5358 47° Northeast 421 484 27,000 60 Climbing Atlanta Center
10:48PM 35.5111 -84.4267 47° Northeast 421 484 27,000  Level Atlanta Center
10:49PM 35.6053 -84.2992 48° Northeast 436 502 27,000  Level Atlanta Center
10:50PM 35.6597 -84.1667 63° Northeast 429 494 27,000  Level Atlanta Center
10:51PM 35.6744 -84.0261 83° East 413 475 27,000  Level Atlanta Center
10:52PM 35.6869 -83.8828 84° East 408 470 27,000  Level Atlanta Center
10:53PM 35.6992 -83.7422 84° East 408 470 27,000  Level Atlanta Center
10:54PM 35.7092 -83.6014 85° East 408 470 27,000  Level Atlanta Center
10:55PM 35.7211 -83.4581 84° East 408 470 27,000  Level Atlanta Center
10:56PM 35.7328 -83.3147 84° East 408 470 27,000  Level Atlanta Center
10:57PM 35.7422 -83.1739 85° East 408 470 27,000  Level Atlanta Center
10:58PM 35.7497 -83.0486 86° East 389 448 27,000 -300 Level Atlanta Center
10:59PM 35.7592 -82.9256 85° East 362 417 26,500 -840 Descending Atlanta Center
11:00PM 35.7683 -82.8025 85° East 357 411 25,400 -1,020 Descending Atlanta Center
11:01PM 35.7775 -82.6769 85° East 357 411 24,500 -720 Descending Atlanta Center
11:02PM 35.7864 -82.5514 85° East 362 417 24,000 -300 Descending Atlanta Center
11:03PM 35.7911 -82.4336 87° East 362 417 24,000 -480 Level Atlanta Center
11:04PM 35.7981 -82.3208 86° East 343 395 23,100 -540 Descending Atlanta Center
11:05PM 35.8089 -82.2156 83° East 321 369 23,000 -60 Descending Atlanta Center
11:06PM 35.8178 -82.1053 84° East 316 364 23,000  Level Atlanta Center
11:07PM 35.8244 -82.0053 85° East 310 357 23,000  Level Atlanta Center
11:08PM 35.8289 -81.8925 87° East 316 364 23,000  Level Atlanta Center
11:09PM 35.8372 -81.7744 85° East 331 381 23,000  Level Atlanta Center
11:10PM 35.8453 -81.6589 85° East 331 381 23,000 -360 Level Atlanta Center
11:11PM 35.8533 -81.5408 85° East 338 389 22,300 -960 Descending Atlanta Center
11:12PM 35.8592 -81.4203 87° East 333 383 21,100 -1,380 Descending Atlanta Center
11:13PM 35.8675 -81.3147 84° East 322 371 19,600 -1,560 Descending Atlanta Center
11:14PM 35.8714 -81.2122 87° East 309 356 18,000 -1,500 Descending Atlanta Center
11:15PM 35.8178 -81.1450 135° Southeast 272 313 16,700 -1,440 Descending Atlanta Center
11:16PM 35.7561 -81.1856 208° Southwest 211 243 15,200 -1,680 Descending Atlanta Center
11:17PM 35.7436 -81.2858 261° West 227 261 13,400 -1,680 Descending Atlanta Center
11:18PM 35.7356 -81.3858 264° West 265 305 11,900 -1,260 Descending Atlanta Center
11:19PM 35.7378 -81.4881 272° West 291 335 10,900 -540 Descending Atlanta Center
11:20PM 35.8156 -81.5239 340° North 258 297 10,900 -300 Level Atlanta Center
11:21PM 35.8539 -81.4589 54° Northeast 158 182 10,400 -780 Descending Atlanta Center
11:22PM 35.8603 -81.3689 85° East 214 246 9,400 -780 Descending Atlanta Center
11:23PM 35.8669 -81.2919 84° East 219 252 8,900 -300 Descending Atlanta Center
11:24PM 35.8694 -81.2147 88° East 219 252 8,900  Level Atlanta Center
11:25PM 35.8228 -81.1831 151° Southeast 157 181 8,900  Level Atlanta Center
11:26PM 35.7889 -81.2586 241° Southwest 146 168 8,900  Level Atlanta Center
11:27PM 35.7828 -81.3536 265° West 238 274 8,900 -240 Level Atlanta Center
11:28PM 35.7764 -81.4483 265° West 276 318 8,500 -780 Descending Atlanta Center
11:29PM 35.7992 -81.5400 287° West 276 318 7,400 -1,200 Descending Atlanta Center
11:30PM 35.8633 -81.5175 16° North 190 219 6,100 -1,080 Descending Atlanta Center
11:31PM 35.8786 -81.4478 75° East 125 144 5,300 -540 Descending Atlanta Center
11:32PM 35.8731 -81.3814 96° East 151 174 5,100 -240 Descending Atlanta Center
11:33PM 35.8694 -81.3147 94° East 189 217 4,900 -120 Descending Atlanta Center
11:34PM 35.8661 -81.2533 94° East 198 228 4,900  Level Atlanta Center
11:35PM 35.8600 -81.1767 96° East 210 242 4,900  Level Atlanta Center
11:36PM 35.8542 -81.1028 96° East 215 247 4,900 -180 Level Atlanta Center
11:37PM 35.8503 -81.0311 94° East 215 247 4,600 -660 Descending Atlanta Center
11:38PM 35.8422 -80.9597 98° East 215 247 3,600 -600 Descending Atlanta Center
11:39PM 35.8383 -80.8803 93° East 215 247 3,500 -60 Descending Atlanta Center
11:40PM 35.8322 -80.8089 96° East 215 247 3,500  Level Atlanta Center
11:41PM 35.8239 -80.7350 98° East 215 247 3,500 -120 Level Atlanta Center
11:42PM 35.7817 -80.7161 160° South 167 192 3,300 -120 Descending Atlanta Center
11:43PM 35.7453 -80.7561 222° Southwest 151 174 3,300 -300 Level Atlanta Center
11:44PM 35.7536 -80.8300 278° West 171 197 2,700 -840 Descending Atlanta Center
11:45PM 35.7594 -80.8961 276° West 200 230 1,700 -600 Descending Atlanta Center
11:46PM 35.7589 -80.9575 269° West 200 230 1,500 -240 Descending Atlanta Center